createdAt,value
2022-09-12T00:01:39.429Z,9.70
2022-09-12T00:04:06.562Z,9.35
2022-09-12T00:06:35.376Z,8.88
2022-09-12T00:09:05.477Z,8.85
2022-09-12T00:11:32.684Z,9.00
2022-09-12T00:14:00.553Z,8.38
2022-09-12T00:16:28.738Z,8.30
2022-09-12T00:18:56.105Z,9.13
2022-09-12T00:21:23.438Z,8.32
2022-09-12T00:23:50.964Z,8.50
2022-09-12T00:26:19.134Z,9.20
2022-09-12T00:28:46.657Z,8.98
2022-09-12T00:31:18.597Z,9.20
2022-09-12T00:33:45.912Z,8.97
2022-09-12T00:36:15.369Z,9.68
2022-09-12T00:38:43.316Z,10.38
2022-09-12T00:41:33.865Z,10.02
2022-09-12T00:44:23.977Z,10.45
2022-09-12T00:46:57.345Z,10.90
2022-09-12T00:49:33.752Z,10.38
2022-09-12T00:52:00.815Z,9.93
2022-09-12T00:54:30.635Z,9.88
2022-09-12T00:57:00.893Z,9.45
2022-09-12T00:59:30.418Z,9.07
2022-09-12T01:01:57.544Z,9.55
2022-09-12T01:04:25.370Z,9.38
2022-09-12T01:06:53.369Z,9.45
2022-09-12T01:09:22.634Z,9.48
2022-09-12T01:11:51.016Z,10.05
2022-09-12T01:14:18.649Z,10.95
2022-09-12T01:16:46.544Z,10.50
2022-09-12T01:19:16.822Z,10.32
2022-09-12T01:21:43.863Z,10.25
2022-09-12T01:24:20.205Z,9.95
2022-09-12T01:26:47.258Z,9.85
2022-09-12T01:29:17.538Z,9.73
2022-09-12T01:32:03.536Z,9.18
2022-09-12T01:34:45.939Z,9.90
2022-09-12T01:37:21.934Z,9.82
2022-09-12T01:40:01.375Z,9.82
2022-09-12T01:42:37.530Z,9.20
2022-09-12T01:45:07.781Z,9.15
2022-09-12T01:47:41.350Z,9.95
2022-09-12T01:50:17.037Z,9.77
2022-09-12T01:52:47.278Z,10.07
2022-09-12T01:55:18.684Z,10.35
2022-09-12T01:57:49.542Z,9.68
2022-09-12T02:00:16.922Z,9.82
2022-09-12T02:02:52.888Z,10.23
2022-09-12T02:05:22.782Z,10.45
2022-09-12T02:07:54.490Z,10.52
2022-09-12T02:10:24.006Z,10.27
2022-09-12T02:12:56.554Z,11.18
2022-09-12T02:15:28.013Z,10.48
2022-09-12T02:17:57.497Z,10.93
2022-09-12T02:20:46.887Z,12.02
2022-09-12T02:23:15.196Z,10.30
2022-09-12T02:25:45.124Z,11.30
2022-09-12T02:28:20.362Z,10.73
2022-09-12T02:31:00.547Z,10.30
2022-09-12T02:33:44.023Z,11.23
2022-09-12T02:36:24.065Z,10.30
2022-09-12T02:38:51.482Z,10.48
2022-09-12T02:41:20.161Z,11.02
2022-09-12T02:43:47.510Z,10.70
2022-09-12T02:46:17.511Z,10.68
2022-09-12T02:48:44.638Z,9.38
2022-09-12T02:51:12.165Z,10.15
2022-09-12T02:53:40.021Z,10.45
2022-09-12T02:56:08.735Z,10.07
2022-09-12T02:58:35.870Z,10.70
2022-09-12T03:01:05.845Z,11.27
2022-09-12T03:03:43.318Z,9.68
2022-09-12T03:06:18.910Z,10.98
2022-09-12T03:08:48.776Z,10.63
2022-09-12T03:11:21.730Z,10.55
2022-09-12T03:13:48.741Z,10.07
2022-09-12T03:16:26.492Z,10.40
2022-09-12T03:19:03.364Z,11.05
2022-09-12T03:21:30.390Z,10.50
2022-09-12T03:24:38.119Z,10.98
2022-09-12T03:27:12.186Z,10.10
2022-09-12T03:29:40.125Z,10.00
2022-09-12T03:32:07.488Z,10.52
2022-09-12T03:34:34.575Z,9.85
2022-09-12T03:37:01.653Z,9.85
2022-09-12T03:39:28.793Z,9.63
2022-09-12T03:41:56.438Z,9.35
2022-09-12T03:44:23.866Z,9.73
2022-09-12T03:46:51.027Z,9.45
2022-09-12T03:49:18.523Z,8.48
2022-09-12T03:51:45.678Z,9.68
2022-09-12T03:54:12.753Z,9.48
2022-09-12T03:56:41.193Z,9.27
2022-09-12T03:59:08.612Z,8.63
2022-09-12T04:01:35.701Z,10.43
2022-09-12T04:04:02.871Z,10.27
2022-09-12T04:06:31.118Z,9.20
2022-09-12T04:08:58.553Z,8.90
2022-09-12T04:11:25.655Z,9.93
2022-09-12T04:13:52.901Z,8.90
2022-09-12T04:16:20.232Z,9.10
2022-09-12T04:18:47.446Z,7.88
2022-09-12T04:21:16.817Z,8.07
2022-09-12T04:23:44.088Z,8.32
2022-09-12T04:26:11.387Z,7.78
2022-09-12T04:28:39.073Z,8.13
2022-09-12T04:31:07.994Z,7.40
2022-09-12T04:33:38.177Z,7.95
2022-09-12T04:36:09.646Z,7.95
2022-09-12T04:38:36.973Z,8.70
2022-09-12T04:41:11.034Z,8.10
2022-09-12T04:43:38.136Z,9.50
2022-09-12T04:46:05.971Z,10.07
2022-09-12T04:48:33.190Z,8.88
2022-09-12T04:51:22.883Z,9.63
2022-09-12T04:53:50.863Z,9.73
2022-09-12T04:56:18.283Z,9.20
2022-09-12T04:58:46.044Z,9.25
2022-09-12T05:01:14.452Z,9.85
2022-09-12T05:03:45.373Z,10.35
2022-09-12T05:06:17.041Z,10.10
2022-09-12T05:08:44.158Z,9.77
2022-09-12T05:11:13.161Z,10.68
2022-09-12T05:13:40.689Z,10.07
2022-09-12T05:16:08.552Z,9.15
2022-09-12T05:18:36.402Z,9.57
2022-09-12T05:21:04.729Z,8.77
2022-09-12T05:23:32.205Z,8.55
2022-09-12T05:25:59.851Z,8.48
2022-09-12T05:28:30.269Z,8.60
2022-09-12T05:31:01.894Z,8.40
2022-09-12T05:33:30.221Z,7.63
2022-09-12T05:35:57.331Z,7.28
2022-09-12T05:38:25.094Z,6.70
2022-09-12T05:40:52.877Z,6.47
2022-09-12T05:43:20.521Z,6.90
2022-09-12T05:45:47.633Z,5.90
2022-09-12T05:48:14.728Z,6.45
2022-09-12T05:50:42.445Z,6.18
2022-09-12T05:53:09.510Z,5.63
2022-09-12T05:55:36.757Z,6.13
2022-09-12T05:58:03.919Z,5.15
2022-09-12T06:00:33.525Z,5.95
2022-09-12T06:03:01.420Z,5.93
2022-09-12T06:05:28.498Z,5.25
2022-09-12T06:07:55.554Z,5.43
2022-09-12T06:10:22.991Z,6.70
2022-09-12T06:12:50.072Z,5.72
2022-09-12T06:15:18.263Z,6.18
2022-09-12T06:17:49.480Z,6.00
2022-09-12T06:20:20.812Z,5.50
2022-09-12T06:22:47.945Z,5.68
2022-09-12T06:25:15.110Z,5.53
2022-09-12T06:27:42.203Z,5.28
2022-09-12T06:30:09.526Z,5.90
2022-09-12T06:32:36.617Z,5.75
2022-09-12T06:35:05.436Z,5.82
2022-09-12T06:37:32.750Z,5.30
2022-09-12T06:40:01.864Z,5.30
2022-09-12T06:42:29.231Z,5.45
2022-09-12T06:44:56.335Z,5.45
2022-09-12T06:47:23.725Z,5.63
2022-09-12T06:49:51.131Z,5.70
2022-09-12T06:52:18.406Z,5.05
2022-09-12T06:54:46.591Z,5.20
2022-09-12T06:57:13.654Z,6.32
2022-09-12T06:59:40.756Z,5.43
2022-09-12T07:02:09.928Z,4.78
2022-09-12T07:04:37.089Z,5.45
2022-09-12T07:07:04.482Z,4.90
2022-09-12T07:09:31.568Z,4.78
2022-09-12T07:11:58.717Z,5.10
2022-09-12T07:14:26.061Z,4.88
2022-09-12T07:16:53.170Z,5.45
2022-09-12T07:19:20.359Z,3.90
2022-09-12T07:21:47.466Z,4.07
2022-09-12T07:24:14.541Z,4.13
2022-09-12T07:26:42.334Z,4.80
2022-09-12T07:29:35.380Z,3.97
2022-09-12T07:32:01.815Z,4.70
2022-09-12T07:34:28.946Z,4.60
2022-09-12T07:36:56.007Z,3.92
2022-09-12T07:39:23.163Z,4.60
2022-09-12T07:41:50.215Z,4.30
2022-09-12T07:44:17.407Z,4.60
2022-09-12T07:46:44.537Z,5.15
2022-09-12T07:49:13.207Z,4.38
2022-09-12T07:51:40.459Z,4.32
2022-09-12T07:54:10.710Z,4.35
2022-09-12T07:56:39.367Z,4.78
2022-09-12T07:59:06.719Z,3.97
2022-09-12T08:01:33.926Z,4.40
2022-09-12T08:04:01.599Z,4.43
2022-09-12T08:06:31.411Z,4.40
2022-09-12T08:08:59.392Z,4.30
2022-09-12T08:11:28.050Z,3.97
2022-09-12T08:13:56.268Z,4.53
2022-09-12T08:16:27.806Z,4.00
2022-09-12T08:18:54.992Z,4.18
2022-09-12T08:21:32.077Z,4.65
2022-09-12T08:24:03.720Z,4.35
2022-09-12T08:26:31.394Z,3.88
2022-09-12T08:28:58.925Z,3.50
2022-09-12T08:31:26.864Z,4.28
2022-09-12T08:33:56.422Z,3.63
2022-09-12T08:36:30.945Z,4.20
2022-09-12T08:39:00.615Z,3.75
2022-09-12T08:41:36.752Z,3.70
2022-09-12T08:44:09.707Z,3.30
2022-09-12T08:46:39.985Z,3.75
2022-09-12T08:49:10.029Z,3.58
2022-09-12T08:51:38.002Z,2.97
2022-09-12T08:54:05.341Z,2.80
2022-09-12T08:56:35.598Z,3.00
2022-09-12T08:59:03.206Z,3.20
2022-09-12T09:01:30.326Z,2.78
2022-09-12T09:04:03.284Z,2.80
2022-09-12T09:06:30.351Z,3.20
2022-09-12T09:09:03.586Z,2.67
2022-09-12T09:11:33.551Z,2.85
2022-09-12T09:14:34.253Z,2.90
2022-09-12T09:17:01.429Z,2.55
2022-09-12T09:19:34.891Z,2.60
2022-09-12T09:22:05.415Z,2.67
2022-09-12T09:24:38.010Z,2.70
2022-09-12T09:27:23.521Z,2.40
2022-09-12T09:29:55.601Z,2.65
2022-09-12T09:32:34.212Z,2.53
2022-09-12T09:35:02.690Z,2.97
2022-09-12T09:37:56.784Z,2.20
2022-09-12T09:40:28.202Z,2.80
2022-09-12T09:43:14.023Z,2.47
2022-09-12T09:45:44.580Z,2.42
2022-09-12T09:48:17.494Z,2.75
2022-09-12T09:50:45.427Z,2.10
2022-09-12T09:53:23.342Z,2.42
2022-09-12T09:55:50.666Z,2.50
2022-09-12T09:58:31.048Z,2.40
2022-09-12T10:01:02.248Z,2.33
2022-09-12T10:03:31.244Z,2.30
2022-09-12T10:06:00.278Z,2.60
2022-09-12T10:08:27.375Z,2.60
2022-09-12T10:11:05.750Z,2.70
2022-09-12T10:13:53.994Z,2.58
2022-09-12T10:16:21.997Z,2.42
2022-09-12T10:18:51.053Z,2.63
2022-09-12T10:21:41.262Z,2.38
2022-09-12T10:24:27.089Z,2.20
2022-09-12T10:27:15.378Z,2.20
2022-09-12T10:29:47.774Z,2.38
2022-09-12T10:32:22.239Z,1.88
2022-09-12T10:34:51.182Z,2.63
2022-09-12T10:37:19.859Z,2.13
2022-09-12T10:39:55.400Z,2.55
2022-09-12T10:42:41.237Z,2.53
2022-09-12T10:45:18.343Z,2.28
2022-09-12T10:47:45.720Z,2.83
2022-09-12T10:50:31.049Z,2.17
2022-09-12T10:53:18.490Z,2.47
2022-09-12T10:56:05.812Z,2.25
2022-09-12T10:58:48.758Z,2.50
2022-09-12T11:03:54.149Z,3.00
2022-09-12T11:06:24.618Z,2.72
2022-09-12T11:08:54.924Z,3.20
2022-09-12T11:11:32.083Z,2.42
2022-09-12T11:14:06.195Z,2.95
2022-09-12T11:16:42.671Z,2.75
2022-09-12T11:19:10.073Z,2.10
2022-09-12T11:22:00.339Z,2.17
2022-09-12T11:24:27.373Z,2.30
2022-09-12T11:27:04.943Z,2.33
2022-09-12T11:32:27.198Z,2.20
2022-09-12T11:35:00.077Z,2.20
2022-09-12T11:37:45.794Z,2.13
2022-09-12T11:40:31.943Z,1.80
2022-09-12T11:43:03.516Z,1.80
2022-09-12T11:45:33.256Z,2.10
2022-09-12T11:48:04.715Z,1.88
2022-09-12T11:50:32.522Z,2.00
2022-09-12T11:53:03.256Z,1.80
2022-09-12T11:55:33.370Z,1.80
2022-09-12T11:58:00.506Z,1.50
2022-09-12T12:00:37.006Z,1.25
2022-09-12T12:03:14.557Z,1.83
2022-09-12T12:05:41.786Z,1.48
2022-09-12T12:08:09.415Z,1.55
2022-09-12T12:10:38.542Z,1.55
2022-09-12T12:13:18.568Z,1.25
2022-09-12T12:15:53.219Z,1.20
2022-09-12T12:18:20.441Z,1.70
2022-09-12T12:20:47.958Z,0.95
2022-09-12T12:23:32.130Z,1.23
2022-09-12T12:26:00.453Z,1.40
2022-09-12T12:28:53.524Z,1.40
2022-09-12T12:33:47.644Z,1.25
2022-09-12T12:36:33.903Z,1.17
2022-09-12T12:39:20.946Z,1.30
2022-09-12T12:41:48.049Z,1.55
2022-09-12T12:44:41.491Z,1.15
2022-09-12T12:47:10.361Z,0.93
2022-09-12T12:49:37.476Z,1.38
2022-09-12T12:52:04.633Z,1.30
2022-09-12T12:54:48.230Z,1.20
2022-09-12T12:57:18.383Z,1.20
2022-09-12T12:59:47.154Z,1.40
2022-09-12T13:02:19.829Z,1.27
2022-09-12T13:07:22.293Z,1.30
2022-09-12T13:09:55.389Z,1.15
2022-09-12T13:12:24.953Z,1.20
2022-09-12T13:14:59.351Z,1.38
2022-09-12T13:17:32.450Z,1.10
2022-09-12T13:20:27.164Z,1.08
2022-09-12T13:22:55.660Z,1.52
2022-09-12T13:25:22.774Z,1.00
2022-09-12T13:28:06.070Z,1.35
2022-09-12T13:30:37.937Z,1.13
2022-09-12T13:33:10.296Z,0.95
2022-09-12T13:35:41.466Z,0.90
2022-09-12T13:38:34.836Z,1.10
2022-09-12T13:41:09.675Z,1.20
2022-09-12T13:43:38.486Z,1.05
2022-09-12T13:46:06.471Z,1.13
2022-09-12T13:48:33.557Z,1.30
2022-09-12T13:51:02.083Z,1.00
2022-09-12T13:53:31.915Z,1.27
2022-09-12T13:55:59.949Z,1.20
2022-09-12T13:58:35.068Z,1.08
2022-09-12T14:01:07.991Z,1.10
2022-09-12T14:03:59.080Z,1.10
2022-09-12T14:06:27.585Z,1.10
2022-09-12T14:08:58.898Z,1.17
2022-09-12T14:11:30.402Z,0.98
2022-09-12T14:13:58.143Z,1.00
2022-09-12T14:16:28.882Z,1.10
2022-09-12T14:18:56.088Z,1.10
2022-09-12T14:21:30.482Z,1.10
2022-09-12T14:23:58.670Z,1.20
2022-09-12T14:26:26.212Z,1.00
2022-09-12T14:28:53.852Z,1.30
2022-09-12T14:31:24.015Z,1.45
2022-09-12T14:33:55.379Z,1.27
2022-09-12T14:36:22.428Z,1.40
2022-09-12T14:39:12.238Z,1.73
2022-09-12T14:41:40.922Z,1.20
2022-09-12T14:44:11.158Z,1.38
2022-09-12T14:46:39.188Z,1.38
2022-09-12T14:49:15.796Z,1.40
2022-09-12T14:51:52.229Z,1.20
2022-09-12T14:54:28.591Z,1.33
2022-09-12T14:57:00.400Z,1.75
2022-09-12T14:59:36.981Z,1.40
2022-09-12T15:02:21.331Z,1.30
2022-09-12T15:04:55.851Z,1.27
2022-09-12T15:07:26.002Z,1.20
2022-09-12T15:09:53.104Z,1.27
2022-09-12T15:12:20.205Z,1.10
2022-09-12T15:14:47.322Z,1.40
2022-09-12T15:17:14.721Z,1.60
2022-09-12T15:19:41.828Z,1.35
2022-09-12T15:22:11.569Z,1.15
2022-09-12T15:24:39.674Z,1.40
2022-09-12T15:27:10.193Z,1.30
2022-09-12T15:29:37.331Z,1.38
2022-09-12T15:32:04.467Z,1.42
2022-09-12T15:34:31.532Z,1.52
2022-09-12T15:36:58.710Z,1.38
2022-09-12T15:39:25.838Z,1.30
2022-09-12T15:41:53.194Z,1.58
2022-09-12T15:44:20.279Z,1.67
2022-09-12T15:46:47.406Z,1.23
2022-09-12T15:49:14.595Z,1.50
2022-09-12T15:51:41.715Z,1.60
2022-09-12T15:54:11.484Z,1.40
2022-09-12T15:56:38.556Z,1.30
2022-09-12T15:59:05.727Z,1.60
2022-09-12T16:01:32.838Z,1.42
2022-09-12T16:03:59.910Z,1.42
2022-09-12T16:06:33.549Z,1.20
2022-09-12T16:09:03.545Z,1.38
2022-09-12T16:11:30.680Z,1.52
2022-09-12T16:13:58.158Z,2.00
2022-09-12T16:16:25.363Z,1.42
2022-09-12T16:18:52.504Z,1.80
2022-09-12T16:21:19.695Z,1.85
2022-09-12T16:23:47.817Z,1.40
2022-09-12T16:26:15.287Z,1.75
2022-09-12T16:28:42.540Z,1.50
2022-09-12T16:31:11.601Z,1.83
2022-09-12T16:33:39.189Z,1.70
2022-09-12T16:36:13.978Z,1.65
2022-09-12T16:38:42.115Z,1.63
2022-09-12T16:41:09.266Z,1.65
2022-09-12T16:43:37.370Z,1.50
2022-09-12T16:46:05.802Z,1.58
2022-09-12T16:48:33.722Z,1.67
2022-09-12T16:51:02.051Z,1.48
2022-09-12T16:53:32.915Z,2.03
2022-09-12T16:56:00.170Z,2.78
2022-09-12T16:58:28.111Z,2.28
2022-09-12T17:01:21.440Z,1.80
2022-09-12T17:03:48.929Z,1.70
2022-09-12T17:06:17.000Z,1.70
2022-09-12T17:08:48.657Z,1.70
2022-09-12T17:11:17.712Z,1.70
2022-09-12T17:14:03.721Z,2.08
2022-09-12T17:16:37.261Z,2.33
2022-09-12T17:19:04.977Z,2.50
2022-09-12T17:21:32.202Z,2.78
2022-09-12T17:23:59.281Z,2.05
2022-09-12T17:26:26.855Z,2.08
2022-09-12T17:28:54.125Z,2.15
2022-09-12T17:31:21.280Z,2.03
2022-09-12T17:33:48.509Z,2.13
2022-09-12T17:36:17.044Z,3.00
2022-09-12T17:38:45.458Z,2.20
2022-09-12T17:41:17.730Z,2.22
2022-09-12T17:43:50.809Z,2.40
2022-09-12T17:46:18.554Z,2.55
2022-09-12T17:48:45.903Z,2.33
2022-09-12T17:51:14.446Z,2.33
2022-09-12T17:53:42.137Z,2.20
2022-09-12T17:56:09.846Z,2.40
2022-09-12T17:58:37.207Z,2.38
2022-09-12T18:01:27.529Z,2.67
2022-09-12T18:03:55.599Z,4.05
2022-09-12T18:06:23.532Z,3.97
2022-09-12T18:08:50.856Z,3.17
2022-09-12T18:11:18.163Z,2.72
2022-09-12T18:13:45.452Z,2.80
2022-09-12T18:16:14.529Z,2.65
2022-09-12T18:18:41.826Z,2.33
2022-09-12T18:21:09.552Z,2.47
2022-09-12T18:23:37.063Z,2.45
2022-09-12T18:26:05.614Z,2.60
2022-09-12T18:28:33.597Z,2.78
2022-09-12T18:31:00.779Z,2.22
2022-09-12T18:33:28.085Z,2.60
2022-09-12T18:35:55.196Z,2.40
2022-09-12T18:38:22.290Z,2.78
2022-09-12T18:40:49.609Z,2.53
2022-09-12T18:43:17.173Z,2.92
2022-09-12T18:45:44.217Z,2.78
2022-09-12T18:48:11.534Z,2.60
2022-09-12T18:50:38.644Z,2.90
2022-09-12T18:53:05.727Z,3.13
2022-09-12T18:55:33.125Z,2.33
2022-09-12T18:58:00.254Z,2.53
2022-09-12T19:00:27.365Z,2.10
2022-09-12T19:02:54.513Z,2.38
2022-09-12T19:05:21.655Z,2.20
2022-09-12T19:07:48.710Z,2.20
2022-09-12T19:10:15.816Z,2.55
2022-09-12T19:12:43.891Z,2.70
2022-09-12T19:15:11.112Z,2.83
2022-09-12T19:17:38.252Z,3.60
2022-09-12T19:20:05.955Z,3.00
2022-09-12T19:22:33.115Z,2.70
2022-09-12T19:25:00.213Z,3.03
2022-09-12T19:27:27.330Z,3.30
2022-09-12T19:29:54.861Z,3.25
2022-09-12T19:32:22.173Z,3.30
2022-09-12T19:34:49.374Z,2.88
2022-09-12T19:37:16.507Z,2.75
2022-09-12T19:39:45.352Z,2.80
2022-09-12T19:42:12.555Z,3.63
2022-09-12T19:44:39.673Z,3.58
2022-09-12T19:47:06.819Z,3.03
2022-09-12T19:49:33.909Z,3.10
2022-09-12T19:52:01.024Z,3.10
2022-09-12T19:54:28.226Z,3.78
2022-09-12T19:56:55.367Z,3.25
2022-09-12T19:59:22.487Z,3.58
2022-09-12T20:01:49.803Z,2.97
2022-09-12T20:04:17.330Z,3.47
2022-09-12T20:06:44.390Z,3.30
2022-09-12T20:09:11.775Z,3.42
2022-09-12T20:11:38.869Z,3.72
2022-09-12T20:14:05.963Z,3.50
2022-09-12T20:16:33.348Z,3.40
2022-09-12T20:19:02.060Z,3.55
2022-09-12T20:21:31.687Z,3.53
2022-09-12T20:24:06.837Z,3.80
2022-09-12T20:26:34.016Z,4.45
2022-09-12T20:29:01.369Z,4.28
2022-09-12T20:31:29.010Z,3.97
2022-09-12T20:33:56.405Z,3.90
2022-09-12T20:36:23.868Z,4.03
2022-09-12T20:38:56.831Z,4.07
2022-09-12T20:41:25.156Z,4.10
2022-09-12T20:43:55.463Z,3.70
2022-09-12T20:46:22.928Z,3.70
2022-09-12T20:48:50.814Z,3.35
2022-09-12T20:51:18.661Z,3.85
2022-09-12T20:53:45.766Z,4.10
2022-09-12T20:56:14.391Z,3.85
2022-09-12T20:58:44.139Z,3.85
2022-09-12T21:01:12.969Z,3.95
2022-09-12T21:03:40.574Z,3.70
2022-09-12T21:06:08.913Z,4.10
2022-09-12T21:08:36.607Z,4.07
2022-09-12T21:11:03.790Z,3.75
2022-09-12T21:13:31.119Z,3.95
2022-09-12T21:16:05.783Z,4.45
2022-09-12T21:18:33.212Z,4.00
2022-09-12T21:21:00.285Z,4.03
2022-09-12T21:23:28.176Z,3.72
2022-09-12T21:25:55.255Z,3.65
2022-09-12T21:28:22.729Z,4.05
2022-09-12T21:30:50.261Z,3.95
2022-09-12T21:33:18.254Z,4.03
2022-09-12T21:35:45.421Z,3.63
2022-09-12T21:38:12.481Z,3.83
2022-09-12T21:40:39.596Z,3.90
2022-09-12T21:43:11.852Z,4.35
2022-09-12T21:45:39.957Z,3.72
2022-09-12T21:48:07.620Z,4.30
2022-09-12T21:50:34.745Z,4.15
2022-09-12T21:53:01.898Z,4.30
2022-09-12T21:55:29.160Z,4.40
2022-09-12T21:57:56.305Z,4.15
2022-09-12T22:00:23.973Z,4.30
2022-09-12T22:02:51.041Z,4.32
2022-09-12T22:05:19.549Z,4.20
2022-09-12T22:07:47.152Z,4.78
2022-09-12T22:10:15.135Z,4.50
2022-09-12T22:12:46.019Z,4.50
2022-09-12T22:15:39.042Z,4.00
2022-09-12T22:18:00.933Z,4.78
2022-09-12T22:20:28.021Z,4.78
2022-09-12T22:23:13.684Z,4.20
2022-09-12T22:25:40.982Z,4.63
2022-09-12T22:28:08.068Z,4.53
2022-09-12T22:30:35.361Z,4.13
2022-09-12T22:33:02.454Z,4.45
2022-09-12T22:35:29.531Z,4.25
2022-09-12T22:37:56.575Z,4.50
2022-09-12T22:40:23.718Z,4.40
2022-09-12T22:42:52.401Z,4.65
2022-09-12T22:45:19.838Z,4.70
2022-09-12T22:47:46.902Z,4.90
2022-09-12T22:50:14.057Z,4.70
2022-09-12T22:52:41.547Z,4.65
2022-09-12T22:55:09.077Z,4.72
2022-09-12T22:57:36.150Z,4.57
2022-09-12T23:00:07.702Z,5.00
2022-09-12T23:02:34.877Z,4.80
2022-09-12T23:05:02.578Z,4.60
2022-09-12T23:07:29.700Z,4.70
2022-09-12T23:09:56.862Z,4.43
2022-09-12T23:12:23.980Z,3.85
2022-09-12T23:14:51.107Z,4.40
2022-09-12T23:17:18.169Z,4.18
2022-09-12T23:19:45.234Z,4.05
2022-09-12T23:22:12.326Z,3.95
2022-09-12T23:24:39.433Z,3.78
2022-09-12T23:27:06.586Z,3.72
2022-09-12T23:29:35.330Z,3.75
2022-09-12T23:32:03.154Z,3.92
2022-09-12T23:34:30.889Z,3.25
2022-09-12T23:36:57.986Z,3.22
2022-09-12T23:39:25.104Z,3.60
2022-09-12T23:41:52.273Z,3.10
2022-09-12T23:44:19.367Z,3.28
2022-09-12T23:46:46.490Z,3.30
2022-09-12T23:49:13.568Z,3.33
2022-09-12T23:51:40.666Z,3.10
2022-09-12T23:54:08.611Z,3.60
2022-09-12T23:56:35.715Z,3.13
2022-09-12T23:59:02.798Z,3.33
